sensor_id;sensor_type;location;lat;lon;timestamp;temperature;humidity
32534;DHT22;18973;48.580;8.912;2023-03-05T00:01:53;3.20;99.90
32534;DHT22;18973;48.580;8.912;2023-03-05T00:04:19;3.10;99.90
32534;DHT22;18973;48.580;8.912;2023-03-05T00:06:46;3.10;99.90
32534;DHT22;18973;48.580;8.912;2023-03-05T00:09:11;3.10;99.90
32534;DHT22;18973;48.580;8.912;2023-03-05T00:11:37;3.10;99.90
32534;DHT22;18973;48.580;8.912;2023-03-05T00:14:04;3.10;99.90
32534;DHT22;18973;48.580;8.912;2023-03-05T00:16:32;3.00;99.90
32534;DHT22;18973;48.580;8.912;2023-03-05T00:18:59;3.00;99.90
32534;DHT22;18973;48.580;8.912;2023-03-05T00:21:27;2.90;99.90
32534;DHT22;18973;48.580;8.912;2023-03-05T00:23:54;2.90;99.90
32534;DHT22;18973;48.580;8.912;2023-03-05T00:26:23;2.90;99.90
32534;DHT22;18973;48.580;8.912;2023-03-05T00:28:49;3.10;99.90
32534;DHT22;18973;48.580;8.912;2023-03-05T00:31:20;3.30;99.90
32534;DHT22;18973;48.580;8.912;2023-03-05T00:33:53;3.10;99.90
32534;DHT22;18973;48.580;8.912;2023-03-05T00:36:20;3.30;99.90
32534;DHT22;18973;48.580;8.912;2023-03-05T00:38:46;3.40;99.90
32534;DHT22;18973;48.580;8.912;2023-03-05T00:41:11;3.30;99.90
32534;DHT22;18973;48.580;8.912;2023-03-05T00:43:37;2.90;99.90
32534;DHT22;18973;48.580;8.912;2023-03-05T00:46:03;3.10;99.90
32534;DHT22;18973;48.580;8.912;2023-03-05T00:48:28;3.20;99.90
32534;DHT22;18973;48.580;8.912;2023-03-05T00:50:54;3.30;99.90
32534;DHT22;18973;48.580;8.912;2023-03-05T00:53:20;3.30;99.90
32534;DHT22;18973;48.580;8.912;2023-03-05T00:55:46;3.40;99.90
32534;DHT22;18973;48.580;8.912;2023-03-05T00:58:13;3.40;99.90
32534;DHT22;18973;48.580;8.912;2023-03-05T01:00:39;3.30;99.90
32534;DHT22;18973;48.580;8.912;2023-03-05T01:03:04;2.90;99.90
32534;DHT22;18973;48.580;8.912;2023-03-05T01:05:30;2.90;99.90
32534;DHT22;18973;48.580;8.912;2023-03-05T01:07:56;2.90;99.90
32534;DHT22;18973;48.580;8.912;2023-03-05T01:10:22;2.90;99.90
32534;DHT22;18973;48.580;8.912;2023-03-05T01:12:54;3.10;99.90
32534;DHT22;18973;48.580;8.912;2023-03-05T01:15:21;3.20;99.90
32534;DHT22;18973;48.580;8.912;2023-03-05T01:17:47;3.20;99.90
32534;DHT22;18973;48.580;8.912;2023-03-05T01:20:15;3.00;99.90
32534;DHT22;18973;48.580;8.912;2023-03-05T01:22:41;3.20;99.90
32534;DHT22;18973;48.580;8.912;2023-03-05T01:25:07;3.20;99.90
32534;DHT22;18973;48.580;8.912;2023-03-05T01:27:33;3.00;99.90
32534;DHT22;18973;48.580;8.912;2023-03-05T01:29:59;3.20;99.90
32534;DHT22;18973;48.580;8.912;2023-03-05T01:32:25;3.40;99.90
32534;DHT22;18973;48.580;8.912;2023-03-05T01:34:51;3.50;99.90
32534;DHT22;18973;48.580;8.912;2023-03-05T01:37:16;3.60;99.90
32534;DHT22;18973;48.580;8.912;2023-03-05T01:39:42;3.60;99.90
32534;DHT22;18973;48.580;8.912;2023-03-05T01:42:08;3.50;99.90
32534;DHT22;18973;48.580;8.912;2023-03-05T01:44:34;3.50;99.90
32534;DHT22;18973;48.580;8.912;2023-03-05T01:47:00;3.50;99.90
32534;DHT22;18973;48.580;8.912;2023-03-05T01:49:32;3.50;99.90
32534;DHT22;18973;48.580;8.912;2023-03-05T01:52:11;3.60;99.90
32534;DHT22;18973;48.580;8.912;2023-03-05T01:57:29;3.70;99.90
32534;DHT22;18973;48.580;8.912;2023-03-05T01:59:58;3.80;99.90
32534;DHT22;18973;48.580;8.912;2023-03-05T02:02:26;3.80;99.90
32534;DHT22;18973;48.580;8.912;2023-03-05T02:04:56;3.80;99.90
32534;DHT22;18973;48.580;8.912;2023-03-05T02:07:24;3.70;99.90
32534;DHT22;18973;48.580;8.912;2023-03-05T02:09:50;3.70;99.90
32534;DHT22;18973;48.580;8.912;2023-03-05T02:12:15;3.70;99.90
32534;DHT22;18973;48.580;8.912;2023-03-05T02:14:44;3.80;99.90
32534;DHT22;18973;48.580;8.912;2023-03-05T02:17:11;3.60;99.90
32534;DHT22;18973;48.580;8.912;2023-03-05T02:20:01;3.60;99.90
32534;DHT22;18973;48.580;8.912;2023-03-05T02:22:28;3.40;99.90
32534;DHT22;18973;48.580;8.912;2023-03-05T02:24:53;3.50;99.90
32534;DHT22;18973;48.580;8.912;2023-03-05T02:27:24;3.50;99.90
32534;DHT22;18973;48.580;8.912;2023-03-05T02:29:51;3.40;99.90
32534;DHT22;18973;48.580;8.912;2023-03-05T02:32:17;3.60;99.90
32534;DHT22;18973;48.580;8.912;2023-03-05T02:34:43;3.60;99.90
32534;DHT22;18973;48.580;8.912;2023-03-05T02:37:08;3.60;99.90
32534;DHT22;18973;48.580;8.912;2023-03-05T02:39:35;3.60;99.90
32534;DHT22;18973;48.580;8.912;2023-03-05T02:42:01;3.70;99.90
32534;DHT22;18973;48.580;8.912;2023-03-05T02:44:27;3.70;99.90
32534;DHT22;18973;48.580;8.912;2023-03-05T02:46:53;3.80;99.90
32534;DHT22;18973;48.580;8.912;2023-03-05T02:49:19;3.70;99.90
32534;DHT22;18973;48.580;8.912;2023-03-05T02:51:45;3.60;99.90
32534;DHT22;18973;48.580;8.912;2023-03-05T02:54:10;3.80;99.90
32534;DHT22;18973;48.580;8.912;2023-03-05T02:56:36;3.90;99.90
32534;DHT22;18973;48.580;8.912;2023-03-05T02:59:04;3.80;99.90
32534;DHT22;18973;48.580;8.912;2023-03-05T03:01:29;3.60;99.90
32534;DHT22;18973;48.580;8.912;2023-03-05T03:03:55;3.30;99.90
32534;DHT22;18973;48.580;8.912;2023-03-05T03:06:21;3.50;99.90
32534;DHT22;18973;48.580;8.912;2023-03-05T03:08:46;3.70;99.90
32534;DHT22;18973;48.580;8.912;2023-03-05T03:11:12;3.60;99.90
32534;DHT22;18973;48.580;8.912;2023-03-05T03:13:38;3.60;99.90
32534;DHT22;18973;48.580;8.912;2023-03-05T03:16:06;3.70;99.90
32534;DHT22;18973;48.580;8.912;2023-03-05T03:18:32;3.70;99.90
32534;DHT22;18973;48.580;8.912;2023-03-05T03:20:58;3.70;99.90
32534;DHT22;18973;48.580;8.912;2023-03-05T03:23:24;3.60;99.90
32534;DHT22;18973;48.580;8.912;2023-03-05T03:25:51;3.80;99.90
32534;DHT22;18973;48.580;8.912;2023-03-05T03:28:16;3.80;99.90
32534;DHT22;18973;48.580;8.912;2023-03-05T03:30:42;3.70;99.90
32534;DHT22;18973;48.580;8.912;2023-03-05T03:33:09;3.80;99.90
32534;DHT22;18973;48.580;8.912;2023-03-05T03:35:34;3.70;99.90
32534;DHT22;18973;48.580;8.912;2023-03-05T03:38:00;3.70;99.90
32534;DHT22;18973;48.580;8.912;2023-03-05T03:40:26;3.70;99.90
32534;DHT22;18973;48.580;8.912;2023-03-05T03:42:52;3.80;99.90
32534;DHT22;18973;48.580;8.912;2023-03-05T03:45:18;3.70;99.90
32534;DHT22;18973;48.580;8.912;2023-03-05T03:47:43;3.80;99.90
32534;DHT22;18973;48.580;8.912;2023-03-05T03:50:10;3.70;99.90
32534;DHT22;18973;48.580;8.912;2023-03-05T03:52:35;3.70;99.90
32534;DHT22;18973;48.580;8.912;2023-03-05T03:55:01;3.80;99.90
32534;DHT22;18973;48.580;8.912;2023-03-05T03:57:28;3.80;99.90
32534;DHT22;18973;48.580;8.912;2023-03-05T03:59:54;3.70;99.90
32534;DHT22;18973;48.580;8.912;2023-03-05T04:02:19;3.80;99.90
32534;DHT22;18973;48.580;8.912;2023-03-05T04:04:45;3.90;99.90
32534;DHT22;18973;48.580;8.912;2023-03-05T04:07:11;3.80;99.90
32534;DHT22;18973;48.580;8.912;2023-03-05T04:09:37;3.80;99.90
32534;DHT22;18973;48.580;8.912;2023-03-05T04:12:03;3.60;99.90
32534;DHT22;18973;48.580;8.912;2023-03-05T04:14:28;3.60;99.90
32534;DHT22;18973;48.580;8.912;2023-03-05T04:16:54;3.70;99.90
32534;DHT22;18973;48.580;8.912;2023-03-05T04:19:20;3.60;99.90
32534;DHT22;18973;48.580;8.912;2023-03-05T04:21:45;3.60;99.90
32534;DHT22;18973;48.580;8.912;2023-03-05T04:24:11;3.60;99.90
32534;DHT22;18973;48.580;8.912;2023-03-05T04:26:37;3.40;99.90
32534;DHT22;18973;48.580;8.912;2023-03-05T04:29:02;3.50;99.90
32534;DHT22;18973;48.580;8.912;2023-03-05T04:31:28;3.60;99.90
32534;DHT22;18973;48.580;8.912;2023-03-05T04:33:54;3.70;99.90
32534;DHT22;18973;48.580;8.912;2023-03-05T04:36:20;3.60;99.90
32534;DHT22;18973;48.580;8.912;2023-03-05T04:38:46;3.60;99.90
32534;DHT22;18973;48.580;8.912;2023-03-05T04:41:11;3.50;99.90
32534;DHT22;18973;48.580;8.912;2023-03-05T04:43:37;3.30;99.90
32534;DHT22;18973;48.580;8.912;2023-03-05T04:46:03;3.30;99.90
32534;DHT22;18973;48.580;8.912;2023-03-05T04:48:28;3.40;99.90
32534;DHT22;18973;48.580;8.912;2023-03-05T04:50:54;3.60;99.90
32534;DHT22;18973;48.580;8.912;2023-03-05T04:53:22;3.60;99.90
32534;DHT22;18973;48.580;8.912;2023-03-05T04:55:54;3.70;99.90
32534;DHT22;18973;48.580;8.912;2023-03-05T04:58:21;3.60;99.90
32534;DHT22;18973;48.580;8.912;2023-03-05T05:00:47;3.70;99.90
32534;DHT22;18973;48.580;8.912;2023-03-05T05:03:12;3.70;99.90
32534;DHT22;18973;48.580;8.912;2023-03-05T05:05:38;3.70;99.90
32534;DHT22;18973;48.580;8.912;2023-03-05T05:08:04;3.60;99.90
32534;DHT22;18973;48.580;8.912;2023-03-05T05:10:29;3.70;99.90
32534;DHT22;18973;48.580;8.912;2023-03-05T05:12:56;3.60;99.90
32534;DHT22;18973;48.580;8.912;2023-03-05T05:15:22;3.60;99.90
32534;DHT22;18973;48.580;8.912;2023-03-05T05:17:47;3.70;99.90
32534;DHT22;18973;48.580;8.912;2023-03-05T05:20:14;3.40;99.90
32534;DHT22;18973;48.580;8.912;2023-03-05T05:22:40;3.40;99.90
32534;DHT22;18973;48.580;8.912;2023-03-05T05:25:06;3.50;99.90
32534;DHT22;18973;48.580;8.912;2023-03-05T05:27:32;3.70;99.90
32534;DHT22;18973;48.580;8.912;2023-03-05T05:29:58;3.70;99.90
32534;DHT22;18973;48.580;8.912;2023-03-05T05:32:24;3.70;99.90
32534;DHT22;18973;48.580;8.912;2023-03-05T05:34:54;3.70;99.90
32534;DHT22;18973;48.580;8.912;2023-03-05T05:37:20;3.80;99.90
32534;DHT22;18973;48.580;8.912;2023-03-05T05:39:46;3.70;99.90
32534;DHT22;18973;48.580;8.912;2023-03-05T05:42:18;3.50;99.90
32534;DHT22;18973;48.580;8.912;2023-03-05T05:44:44;3.60;99.90
32534;DHT22;18973;48.580;8.912;2023-03-05T05:47:11;3.60;99.90
32534;DHT22;18973;48.580;8.912;2023-03-05T05:49:37;3.60;99.90
32534;DHT22;18973;48.580;8.912;2023-03-05T05:52:03;3.70;99.90
32534;DHT22;18973;48.580;8.912;2023-03-05T05:54:28;3.30;99.90
32534;DHT22;18973;48.580;8.912;2023-03-05T05:56:54;3.20;99.90
32534;DHT22;18973;48.580;8.912;2023-03-05T05:59:20;3.40;99.90
32534;DHT22;18973;48.580;8.912;2023-03-05T06:01:45;3.50;99.90
32534;DHT22;18973;48.580;8.912;2023-03-05T06:04:11;3.50;99.90
32534;DHT22;18973;48.580;8.912;2023-03-05T06:06:37;3.60;99.90
32534;DHT22;18973;48.580;8.912;2023-03-05T06:09:03;3.60;99.90
32534;DHT22;18973;48.580;8.912;2023-03-05T06:11:29;3.50;99.90
32534;DHT22;18973;48.580;8.912;2023-03-05T06:13:54;3.60;99.90
32534;DHT22;18973;48.580;8.912;2023-03-05T06:16:22;3.60;99.90
32534;DHT22;18973;48.580;8.912;2023-03-05T06:18:49;3.80;99.90
32534;DHT22;18973;48.580;8.912;2023-03-05T06:21:17;3.80;99.90
32534;DHT22;18973;48.580;8.912;2023-03-05T06:23:44;3.80;99.90
32534;DHT22;18973;48.580;8.912;2023-03-05T06:26:12;3.70;99.90
32534;DHT22;18973;48.580;8.912;2023-03-05T06:28:38;3.70;99.90
32534;DHT22;18973;48.580;8.912;2023-03-05T06:31:13;3.80;99.90
32534;DHT22;18973;48.580;8.912;2023-03-05T06:33:39;3.80;99.90
32534;DHT22;18973;48.580;8.912;2023-03-05T06:36:07;3.70;99.90
32534;DHT22;18973;48.580;8.912;2023-03-05T06:38:34;3.70;99.90
32534;DHT22;18973;48.580;8.912;2023-03-05T06:41:08;3.80;99.90
32534;DHT22;18973;48.580;8.912;2023-03-05T06:43:35;3.80;99.90
32534;DHT22;18973;48.580;8.912;2023-03-05T06:46:06;3.90;99.90
32534;DHT22;18973;48.580;8.912;2023-03-05T06:48:33;3.80;99.90
32534;DHT22;18973;48.580;8.912;2023-03-05T06:50:58;3.70;99.90
32534;DHT22;18973;48.580;8.912;2023-03-05T06:53:25;3.40;99.90
32534;DHT22;18973;48.580;8.912;2023-03-05T06:55:51;3.50;99.90
32534;DHT22;18973;48.580;8.912;2023-03-05T06:58:17;3.60;99.90
32534;DHT22;18973;48.580;8.912;2023-03-05T07:00:43;3.70;99.90
32534;DHT22;18973;48.580;8.912;2023-03-05T07:03:09;3.70;99.90
32534;DHT22;18973;48.580;8.912;2023-03-05T07:05:41;3.80;99.90
32534;DHT22;18973;48.580;8.912;2023-03-05T07:08:08;3.80;99.90
32534;DHT22;18973;48.580;8.912;2023-03-05T07:10:41;3.90;99.90
32534;DHT22;18973;48.580;8.912;2023-03-05T07:13:09;3.80;99.90
32534;DHT22;18973;48.580;8.912;2023-03-05T07:15:37;3.90;99.90
32534;DHT22;18973;48.580;8.912;2023-03-05T07:18:04;4.00;99.90
32534;DHT22;18973;48.580;8.912;2023-03-05T07:20:32;3.90;99.90
32534;DHT22;18973;48.580;8.912;2023-03-05T07:22:58;3.90;99.90
32534;DHT22;18973;48.580;8.912;2023-03-05T07:25:24;3.90;99.90
32534;DHT22;18973;48.580;8.912;2023-03-05T07:27:49;4.00;99.90
32534;DHT22;18973;48.580;8.912;2023-03-05T07:30:16;4.10;99.90
32534;DHT22;18973;48.580;8.912;2023-03-05T07:32:42;4.00;99.90
32534;DHT22;18973;48.580;8.912;2023-03-05T07:35:08;3.90;99.90
32534;DHT22;18973;48.580;8.912;2023-03-05T07:37:34;3.90;99.90
32534;DHT22;18973;48.580;8.912;2023-03-05T07:40:00;3.90;99.90
32534;DHT22;18973;48.580;8.912;2023-03-05T07:42:25;4.00;99.90
32534;DHT22;18973;48.580;8.912;2023-03-05T07:44:51;3.80;99.90
32534;DHT22;18973;48.580;8.912;2023-03-05T07:47:17;3.90;99.90
32534;DHT22;18973;48.580;8.912;2023-03-05T07:49:43;3.90;99.90
32534;DHT22;18973;48.580;8.912;2023-03-05T07:52:08;3.80;99.90
32534;DHT22;18973;48.580;8.912;2023-03-05T07:54:37;3.60;99.90
32534;DHT22;18973;48.580;8.912;2023-03-05T07:57:04;3.70;99.90
32534;DHT22;18973;48.580;8.912;2023-03-05T07:59:30;3.90;99.90
32534;DHT22;18973;48.580;8.912;2023-03-05T08:01:56;4.00;99.90
32534;DHT22;18973;48.580;8.912;2023-03-05T08:04:23;4.00;99.90
32534;DHT22;18973;48.580;8.912;2023-03-05T08:06:48;3.90;99.90
32534;DHT22;18973;48.580;8.912;2023-03-05T08:09:15;3.90;99.90
32534;DHT22;18973;48.580;8.912;2023-03-05T08:11:41;3.90;99.90
32534;DHT22;18973;48.580;8.912;2023-03-05T08:14:07;4.00;99.90
32534;DHT22;18973;48.580;8.912;2023-03-05T08:16:33;4.00;99.90
32534;DHT22;18973;48.580;8.912;2023-03-05T08:18:59;4.00;99.90
32534;DHT22;18973;48.580;8.912;2023-03-05T08:21:30;4.00;99.90
32534;DHT22;18973;48.580;8.912;2023-03-05T08:23:59;4.10;99.90
32534;DHT22;18973;48.580;8.912;2023-03-05T08:26:27;4.10;99.90
32534;DHT22;18973;48.580;8.912;2023-03-05T08:28:54;4.10;99.90
32534;DHT22;18973;48.580;8.912;2023-03-05T08:31:21;4.20;99.90
32534;DHT22;18973;48.580;8.912;2023-03-05T08:33:52;4.00;99.90
32534;DHT22;18973;48.580;8.912;2023-03-05T08:36:18;3.90;99.90
32534;DHT22;18973;48.580;8.912;2023-03-05T08:38:44;4.00;99.90
32534;DHT22;18973;48.580;8.912;2023-03-05T08:41:11;4.10;99.90
32534;DHT22;18973;48.580;8.912;2023-03-05T08:43:37;4.10;99.90
32534;DHT22;18973;48.580;8.912;2023-03-05T08:46:03;4.30;99.90
32534;DHT22;18973;48.580;8.912;2023-03-05T08:48:29;4.30;99.90
32534;DHT22;18973;48.580;8.912;2023-03-05T08:50:56;4.30;99.90
32534;DHT22;18973;48.580;8.912;2023-03-05T08:53:23;4.30;99.90
32534;DHT22;18973;48.580;8.912;2023-03-05T08:55:58;4.20;99.90
32534;DHT22;18973;48.580;8.912;2023-03-05T08:58:23;4.30;99.90
32534;DHT22;18973;48.580;8.912;2023-03-05T09:00:49;4.40;99.90
32534;DHT22;18973;48.580;8.912;2023-03-05T09:03:15;4.40;99.90
32534;DHT22;18973;48.580;8.912;2023-03-05T09:05:41;4.50;99.90
32534;DHT22;18973;48.580;8.912;2023-03-05T09:08:07;4.50;99.90
32534;DHT22;18973;48.580;8.912;2023-03-05T09:10:32;4.60;99.90
32534;DHT22;18973;48.580;8.912;2023-03-05T09:12:58;4.50;99.90
32534;DHT22;18973;48.580;8.912;2023-03-05T09:15:24;4.50;99.90
32534;DHT22;18973;48.580;8.912;2023-03-05T09:17:49;4.50;99.90
32534;DHT22;18973;48.580;8.912;2023-03-05T09:20:16;4.50;99.90
32534;DHT22;18973;48.580;8.912;2023-03-05T09:22:41;4.50;99.90
32534;DHT22;18973;48.580;8.912;2023-03-05T09:25:08;4.50;99.90
32534;DHT22;18973;48.580;8.912;2023-03-05T09:27:36;4.40;99.90
32534;DHT22;18973;48.580;8.912;2023-03-05T09:30:02;4.50;99.90
32534;DHT22;18973;48.580;8.912;2023-03-05T09:32:28;4.50;99.90
32534;DHT22;18973;48.580;8.912;2023-03-05T09:34:54;4.50;99.90
32534;DHT22;18973;48.580;8.912;2023-03-05T09:37:20;4.50;99.90
32534;DHT22;18973;48.580;8.912;2023-03-05T09:39:46;4.60;99.90
32534;DHT22;18973;48.580;8.912;2023-03-05T09:50:43;4.80;99.90
32534;DHT22;18973;48.580;8.912;2023-03-05T09:55:58;4.70;99.90
32534;DHT22;18973;48.580;8.912;2023-03-05T09:58:37;4.90;99.90
32534;DHT22;18973;48.580;8.912;2023-03-05T10:01:10;4.90;99.90
32534;DHT22;18973;48.580;8.912;2023-03-05T10:03:49;4.90;99.90
32534;DHT22;18973;48.580;8.912;2023-03-05T10:06:35;4.90;99.90
32534;DHT22;18973;48.580;8.912;2023-03-05T10:11:46;5.10;99.90
32534;DHT22;18973;48.580;8.912;2023-03-05T10:14:32;5.10;99.90
32534;DHT22;18973;48.580;8.912;2023-03-05T10:17:31;5.10;99.90
32534;DHT22;18973;48.580;8.912;2023-03-05T10:20:40;5.10;99.90
32534;DHT22;18973;48.580;8.912;2023-03-05T10:26:03;5.30;99.90
32534;DHT22;18973;48.580;8.912;2023-03-05T10:28:47;5.40;99.90
32534;DHT22;18973;48.580;8.912;2023-03-05T10:37:05;5.40;99.90
32534;DHT22;18973;48.580;8.912;2023-03-05T10:45:00;5.70;99.90
32534;DHT22;18973;48.580;8.912;2023-03-05T10:47:51;5.80;99.90
32534;DHT22;18973;48.580;8.912;2023-03-05T10:50:25;5.70;99.90
32534;DHT22;18973;48.580;8.912;2023-03-05T10:53:06;5.80;99.90
32534;DHT22;18973;48.580;8.912;2023-03-05T10:55:38;5.80;99.90
32534;DHT22;18973;48.580;8.912;2023-03-05T10:58:14;5.80;99.90
32534;DHT22;18973;48.580;8.912;2023-03-05T11:00:56;5.90;99.90
32534;DHT22;18973;48.580;8.912;2023-03-05T11:03:22;5.90;99.90
32534;DHT22;18973;48.580;8.912;2023-03-05T11:05:50;5.80;99.90
32534;DHT22;18973;48.580;8.912;2023-03-05T11:08:34;5.90;99.90
32534;DHT22;18973;48.580;8.912;2023-03-05T11:11:24;5.90;99.90
32534;DHT22;18973;48.580;8.912;2023-03-05T11:13:54;5.80;99.90
32534;DHT22;18973;48.580;8.912;2023-03-05T11:16:29;5.80;99.90
32534;DHT22;18973;48.580;8.912;2023-03-05T11:21:39;5.80;99.90
32534;DHT22;18973;48.580;8.912;2023-03-05T11:24:13;5.90;99.90
32534;DHT22;18973;48.580;8.912;2023-03-05T11:26:53;5.80;99.90
32534;DHT22;18973;48.580;8.912;2023-03-05T11:29:46;5.80;99.90
32534;DHT22;18973;48.580;8.912;2023-03-05T11:32:18;5.80;99.90
32534;DHT22;18973;48.580;8.912;2023-03-05T11:34:45;5.90;99.90
32534;DHT22;18973;48.580;8.912;2023-03-05T11:37:27;5.90;99.90
32534;DHT22;18973;48.580;8.912;2023-03-05T11:40:19;6.00;99.90
32534;DHT22;18973;48.580;8.912;2023-03-05T11:42:50;6.00;99.90
32534;DHT22;18973;48.580;8.912;2023-03-05T11:45:18;5.90;99.90
32534;DHT22;18973;48.580;8.912;2023-03-05T11:47:49;5.90;99.90
32534;DHT22;18973;48.580;8.912;2023-03-05T11:52:48;5.60;99.90
32534;DHT22;18973;48.580;8.912;2023-03-05T11:57:56;5.60;99.90
32534;DHT22;18973;48.580;8.912;2023-03-05T12:00:31;5.60;99.90
32534;DHT22;18973;48.580;8.912;2023-03-05T12:03:01;5.70;99.90
32534;DHT22;18973;48.580;8.912;2023-03-05T12:05:29;5.80;99.90
32534;DHT22;18973;48.580;8.912;2023-03-05T12:07:58;5.90;99.90
32534;DHT22;18973;48.580;8.912;2023-03-05T12:10:26;5.70;99.90
32534;DHT22;18973;48.580;8.912;2023-03-05T12:13:04;5.80;99.90
32534;DHT22;18973;48.580;8.912;2023-03-05T12:15:46;5.90;99.90
32534;DHT22;18973;48.580;8.912;2023-03-05T12:26:15;6.00;99.90
32534;DHT22;18973;48.580;8.912;2023-03-05T12:31:38;5.80;99.90
32534;DHT22;18973;48.580;8.912;2023-03-05T12:37:08;5.70;99.90
32534;DHT22;18973;48.580;8.912;2023-03-05T12:47:45;5.50;99.90
32534;DHT22;18973;48.580;8.912;2023-03-05T12:53:13;5.20;99.90
32534;DHT22;18973;48.580;8.912;2023-03-05T12:56:01;5.40;99.90
32534;DHT22;18973;48.580;8.912;2023-03-05T12:58:47;5.40;99.90
32534;DHT22;18973;48.580;8.912;2023-03-05T13:01:28;5.20;99.90
32534;DHT22;18973;48.580;8.912;2023-03-05T13:04:16;5.20;99.90
32534;DHT22;18973;48.580;8.912;2023-03-05T13:06:45;5.00;99.90
32534;DHT22;18973;48.580;8.912;2023-03-05T13:11:37;5.00;99.90
32534;DHT22;18973;48.580;8.912;2023-03-05T13:14:03;4.80;99.90
32534;DHT22;18973;48.580;8.912;2023-03-05T13:16:43;4.90;99.90
32534;DHT22;18973;48.580;8.912;2023-03-05T13:19:15;4.90;99.90
32534;DHT22;18973;48.580;8.912;2023-03-05T13:21:42;4.90;99.90
32534;DHT22;18973;48.580;8.912;2023-03-05T13:24:17;4.90;99.90
32534;DHT22;18973;48.580;8.912;2023-03-05T13:26:43;4.90;99.90
32534;DHT22;18973;48.580;8.912;2023-03-05T13:31:38;5.00;99.90
32534;DHT22;18973;48.580;8.912;2023-03-05T13:34:27;5.00;99.90
32534;DHT22;18973;48.580;8.912;2023-03-05T13:37:15;4.90;99.90
32534;DHT22;18973;48.580;8.912;2023-03-05T13:39:50;4.90;99.90
32534;DHT22;18973;48.580;8.912;2023-03-05T13:42:23;5.00;99.90
32534;DHT22;18973;48.580;8.912;2023-03-05T13:45:00;4.90;99.90
32534;DHT22;18973;48.580;8.912;2023-03-05T13:47:29;5.10;99.90
32534;DHT22;18973;48.580;8.912;2023-03-05T13:49:57;5.30;99.90
32534;DHT22;18973;48.580;8.912;2023-03-05T13:52:26;5.30;99.90
32534;DHT22;18973;48.580;8.912;2023-03-05T13:54:55;5.30;99.90
32534;DHT22;18973;48.580;8.912;2023-03-05T14:00:22;5.20;99.90
32534;DHT22;18973;48.580;8.912;2023-03-05T14:02:49;5.30;99.90
32534;DHT22;18973;48.580;8.912;2023-03-05T14:05:15;5.10;99.90
32534;DHT22;18973;48.580;8.912;2023-03-05T14:07:41;4.90;99.90
32534;DHT22;18973;48.580;8.912;2023-03-05T14:10:33;5.10;99.90
32534;DHT22;18973;48.580;8.912;2023-03-05T14:13:10;5.30;99.90
32534;DHT22;18973;48.580;8.912;2023-03-05T14:15:37;5.20;99.90
32534;DHT22;18973;48.580;8.912;2023-03-05T14:20:36;5.10;99.90
32534;DHT22;18973;48.580;8.912;2023-03-05T14:26:34;5.30;99.90
32534;DHT22;18973;48.580;8.912;2023-03-05T14:29:13;5.30;99.90
32534;DHT22;18973;48.580;8.912;2023-03-05T14:34:27;5.70;99.90
32534;DHT22;18973;48.580;8.912;2023-03-05T14:37:01;5.70;99.90
32534;DHT22;18973;48.580;8.912;2023-03-05T14:39:43;5.80;99.90
32534;DHT22;18973;48.580;8.912;2023-03-05T14:42:35;5.90;99.90
32534;DHT22;18973;48.580;8.912;2023-03-05T14:45:22;5.90;99.90
32534;DHT22;18973;48.580;8.912;2023-03-05T14:47:53;5.90;99.90
32534;DHT22;18973;48.580;8.912;2023-03-05T14:50:23;5.90;99.90
32534;DHT22;18973;48.580;8.912;2023-03-05T14:52:51;6.00;99.90
32534;DHT22;18973;48.580;8.912;2023-03-05T14:55:22;6.10;99.90
32534;DHT22;18973;48.580;8.912;2023-03-05T14:57:50;6.20;99.90
32534;DHT22;18973;48.580;8.912;2023-03-05T15:00:25;6.10;99.90
32534;DHT22;18973;48.580;8.912;2023-03-05T15:02:51;5.90;99.90
32534;DHT22;18973;48.580;8.912;2023-03-05T15:05:17;6.00;99.90
32534;DHT22;18973;48.580;8.912;2023-03-05T15:07:44;6.00;99.90
32534;DHT22;18973;48.580;8.912;2023-03-05T15:10:21;5.80;99.90
32534;DHT22;18973;48.580;8.912;2023-03-05T15:12:48;5.70;99.90
32534;DHT22;18973;48.580;8.912;2023-03-05T15:15:18;5.60;99.90
32534;DHT22;18973;48.580;8.912;2023-03-05T15:17:46;5.50;99.90
32534;DHT22;18973;48.580;8.912;2023-03-05T15:20:19;5.50;99.90
32534;DHT22;18973;48.580;8.912;2023-03-05T15:22:45;5.30;99.90
32534;DHT22;18973;48.580;8.912;2023-03-05T15:25:11;5.20;99.90
32534;DHT22;18973;48.580;8.912;2023-03-05T15:27:37;5.50;99.90
32534;DHT22;18973;48.580;8.912;2023-03-05T15:30:05;5.60;99.90
32534;DHT22;18973;48.580;8.912;2023-03-05T15:32:31;5.80;99.90
32534;DHT22;18973;48.580;8.912;2023-03-05T15:34:57;5.80;99.90
32534;DHT22;18973;48.580;8.912;2023-03-05T15:37:23;5.60;99.90
32534;DHT22;18973;48.580;8.912;2023-03-05T15:39:50;5.70;99.90
32534;DHT22;18973;48.580;8.912;2023-03-05T15:42:16;5.80;99.90
32534;DHT22;18973;48.580;8.912;2023-03-05T15:44:42;5.90;99.90
32534;DHT22;18973;48.580;8.912;2023-03-05T15:47:08;5.80;99.90
32534;DHT22;18973;48.580;8.912;2023-03-05T15:49:33;5.50;99.90
32534;DHT22;18973;48.580;8.912;2023-03-05T15:51:59;5.50;99.90
32534;DHT22;18973;48.580;8.912;2023-03-05T15:54:25;5.40;99.90
32534;DHT22;18973;48.580;8.912;2023-03-05T15:56:52;5.40;99.90
32534;DHT22;18973;48.580;8.912;2023-03-05T15:59:18;5.50;99.90
32534;DHT22;18973;48.580;8.912;2023-03-05T16:01:49;5.70;99.90
32534;DHT22;18973;48.580;8.912;2023-03-05T16:04:16;5.80;99.90
32534;DHT22;18973;48.580;8.912;2023-03-05T16:06:44;5.80;99.90
32534;DHT22;18973;48.580;8.912;2023-03-05T16:09:11;5.80;99.90
32534;DHT22;18973;48.580;8.912;2023-03-05T16:11:39;5.90;99.90
32534;DHT22;18973;48.580;8.912;2023-03-05T16:14:07;5.90;99.90
32534;DHT22;18973;48.580;8.912;2023-03-05T16:16:34;5.70;99.90
32534;DHT22;18973;48.580;8.912;2023-03-05T16:19:02;5.60;99.90
32534;DHT22;18973;48.580;8.912;2023-03-05T16:21:29;5.50;99.90
32534;DHT22;18973;48.580;8.912;2023-03-05T16:23:55;5.60;99.90
32534;DHT22;18973;48.580;8.912;2023-03-05T16:26:22;5.60;99.90
32534;DHT22;18973;48.580;8.912;2023-03-05T16:28:47;5.70;99.90
32534;DHT22;18973;48.580;8.912;2023-03-05T16:31:13;5.40;99.90
32534;DHT22;18973;48.580;8.912;2023-03-05T16:33:39;5.30;99.90
32534;DHT22;18973;48.580;8.912;2023-03-05T16:36:19;5.30;99.90
32534;DHT22;18973;48.580;8.912;2023-03-05T16:38:49;5.20;99.90
32534;DHT22;18973;48.580;8.912;2023-03-05T16:41:15;5.20;99.90
32534;DHT22;18973;48.580;8.912;2023-03-05T16:43:42;5.10;99.90
32534;DHT22;18973;48.580;8.912;2023-03-05T16:46:08;5.20;99.90
32534;DHT22;18973;48.580;8.912;2023-03-05T16:48:34;5.30;99.90
32534;DHT22;18973;48.580;8.912;2023-03-05T16:51:00;5.40;99.90
32534;DHT22;18973;48.580;8.912;2023-03-05T16:53:26;5.60;99.90
32534;DHT22;18973;48.580;8.912;2023-03-05T16:55:52;5.70;99.90
32534;DHT22;18973;48.580;8.912;2023-03-05T16:58:18;5.60;99.90
32534;DHT22;18973;48.580;8.912;2023-03-05T17:00:43;5.60;99.90
32534;DHT22;18973;48.580;8.912;2023-03-05T17:03:09;5.60;99.90
32534;DHT22;18973;48.580;8.912;2023-03-05T17:05:36;5.60;99.90
32534;DHT22;18973;48.580;8.912;2023-03-05T17:08:01;5.70;99.90
32534;DHT22;18973;48.580;8.912;2023-03-05T17:10:29;5.70;99.90
32534;DHT22;18973;48.580;8.912;2023-03-05T17:12:55;5.70;99.90
32534;DHT22;18973;48.580;8.912;2023-03-05T17:15:22;5.70;99.90